Time;durP1;ratioP1;P1;durP2;ratioP2;P2;SDS_P1;SDS_P2;PMS_P1;PMS_P2;Temp;Humidity;BMP_temperature;BMP_pressure;BME280_temperature;BME280_humidity;BME280_pressure;Samples;Min_cycle;Max_cycle;Signal;HPM_P1;HPM_P2
2023/10/16 00:01:54;;;;;;;0.00;0.00;;;;;;;;;;4982463;28;20045;-68
2023/10/16 00:04:23;;;;;;;0.00;0.00;;;;;;;;;;4978946;28;20035;-67
2023/10/16 00:06:49;;;;;;;0.00;0.00;;;;;;;;;;4984045;28;20038;-67
2023/10/16 00:09:21;;;;;;;0.00;0.00;;;;;;;;;;4985370;28;20048;-67
2023/10/16 00:11:47;;;;;;;0.00;0.00;;;;;;;;;;4971107;28;20053;-68
2023/10/16 00:14:23;;;;;;;0.00;0.00;;;;;;;;;;4983093;28;20042;-67
2023/10/16 00:16:50;;;;;;;0.00;0.00;;;;;;;;;;4985380;28;20039;-67
2023/10/16 00:19:16;;;;;;;0.00;0.00;;;;;;;;;;4983434;28;20193;-67
2023/10/16 00:21:46;;;;;;;0.00;0.00;;;;;;;;;;4985706;28;20050;-67
2023/10/16 00:24:12;;;;;;;0.00;0.00;;;;;;;;;;4981224;28;20037;-66
2023/10/16 00:26:50;;;;;;;0.00;0.00;;;;;;;;;;4982941;28;20050;-67
2023/10/16 00:29:22;;;;;;;0.00;0.00;;;;;;;;;;4983004;28;20034;-66
2023/10/16 00:31:52;;;;;;;0.00;0.00;;;;;;;;;;4983992;28;20038;-66
2023/10/16 00:34:21;;;;;;;0.00;0.00;;;;;;;;;;4983364;28;20498;-67
2023/10/16 00:36:53;;;;;;;0.00;0.00;;;;;;;;;;4986469;28;20419;-67
2023/10/16 00:39:20;;;;;;;0.00;0.00;;;;;;;;;;4982758;28;20052;-66
2023/10/16 00:41:46;;;;;;;0.00;0.00;;;;;;;;;;4983737;28;20042;-67
2023/10/16 00:44:19;;;;;;;0.00;0.00;;;;;;;;;;4984339;28;20758;-67
2023/10/16 00:46:48;;;;;;;0.00;0.00;;;;;;;;;;4984975;28;20165;-66
2023/10/16 00:49:18;;;;;;;0.00;0.00;;;;;;;;;;4982885;28;20482;-66
2023/10/16 00:51:45;;;;;;;0.00;0.00;;;;;;;;;;4987785;28;20482;-66
2023/10/16 00:54:17;;;;;;;0.00;0.00;;;;;;;;;;4980973;28;20034;-67
2023/10/16 00:56:44;;;;;;;0.00;0.00;;;;;;;;;;4992911;28;20053;-69
2023/10/16 00:59:15;;;;;;;0.00;0.00;;;;;;;;;;4980387;28;20058;-69
2023/10/16 01:01:43;;;;;;;0.00;0.00;;;;;;;;;;4980401;28;20499;-69
2023/10/16 01:04:09;;;;;;;0.00;0.00;;;;;;;;;;4979991;28;20486;-69
2023/10/16 01:06:41;;;;;;;0.00;0.00;;;;;;;;;;4978201;28;20034;-69
2023/10/16 01:09:17;;;;;;;0.00;0.00;;;;;;;;;;4980160;28;20065;-69
2023/10/16 01:11:43;;;;;;;0.00;0.00;;;;;;;;;;4978599;28;20476;-69
2023/10/16 01:14:12;;;;;;;0.00;0.00;;;;;;;;;;4979594;28;20144;-68
2023/10/16 01:16:38;;;;;;;0.00;0.00;;;;;;;;;;4980359;28;20039;-68
2023/10/16 01:19:06;;;;;;;0.00;0.00;;;;;;;;;;4979307;28;20040;-68
2023/10/16 01:21:33;;;;;;;0.00;0.00;;;;;;;;;;4980261;28;20053;-68
2023/10/16 01:24:16;;;;;;;0.00;0.00;;;;;;;;;;4979482;28;20131;-68
2023/10/16 01:26:42;;;;;;;0.00;0.00;;;;;;;;;;4990680;28;20077;-68
2023/10/16 01:29:09;;;;;;;0.00;0.00;;;;;;;;;;4982030;28;20038;-68
2023/10/16 01:31:40;;;;;;;0.00;0.00;;;;;;;;;;4979319;28;20046;-67
2023/10/16 01:34:10;;;;;;;0.00;0.00;;;;;;;;;;4981567;28;20505;-67
2023/10/16 01:36:37;;;;;;;0.00;0.00;;;;;;;;;;4985171;28;20045;-67
2023/10/16 01:39:08;;;;;;;0.00;0.00;;;;;;;;;;4993597;28;20061;-67
2023/10/16 01:41:34;;;;;;;0.00;0.00;;;;;;;;;;4982172;28;20044;-67
2023/10/16 01:44:09;;;;;;;0.00;0.00;;;;;;;;;;4978843;28;20050;-67
2023/10/16 01:46:35;;;;;;;0.00;0.00;;;;;;;;;;4984086;28;20073;-67
2023/10/16 01:49:04;;;;;;;0.00;0.00;;;;;;;;;;4978156;28;20140;-67
2023/10/16 01:51:30;;;;;;;0.00;0.00;;;;;;;;;;4996183;28;20045;-67
2023/10/16 01:53:56;;;;;;;0.00;0.00;;;;;;;;;;4981654;28;20042;-67
2023/10/16 01:56:22;;;;;;;0.00;0.00;;;;;;;;;;4985819;28;20049;-67
2023/10/16 01:58:52;;;;;;;0.00;0.00;;;;;;;;;;4977962;28;20497;-67
2023/10/16 02:01:19;;;;;;;0.00;0.00;;;;;;;;;;4979597;28;20528;-67
2023/10/16 02:03:46;;;;;;;0.00;0.00;;;;;;;;;;4979851;28;20046;-67
2023/10/16 02:06:12;;;;;;;0.00;0.00;;;;;;;;;;4993872;28;20137;-67
2023/10/16 02:08:43;;;;;;;0.00;0.00;;;;;;;;;;4988980;28;20077;-66
2023/10/16 02:11:10;;;;;;;0.00;0.00;;;;;;;;;;4997759;28;20060;-66
2023/10/16 02:13:37;;;;;;;0.00;0.00;;;;;;;;;;4983289;28;20458;-66
2023/10/16 02:16:06;;;;;;;0.00;0.00;;;;;;;;;;4981754;28;20066;-66
2023/10/16 02:18:40;;;;;;;0.00;0.00;;;;;;;;;;4982282;28;20762;-66
2023/10/16 02:21:11;;;;;;;0.00;0.00;;;;;;;;;;4978758;28;20442;-66
2023/10/16 02:23:37;;;;;;;0.00;0.00;;;;;;;;;;4982888;28;20058;-67
2023/10/16 02:26:06;;;;;;;0.00;0.00;;;;;;;;;;4982519;28;20080;-66
2023/10/16 02:28:35;;;;;;;0.00;0.00;;;;;;;;;;5002288;28;20505;-66
2023/10/16 02:31:19;;;;;;;0.00;0.00;;;;;;;;;;4983154;28;20151;-66
2023/10/16 02:33:50;;;;;;;0.00;0.00;;;;;;;;;;4981638;28;20046;-66
2023/10/16 02:36:16;;;;;;;0.00;0.00;;;;;;;;;;4988741;28;20454;-66
2023/10/16 02:38:42;;;;;;;0.00;0.00;;;;;;;;;;4978776;28;20060;-66
2023/10/16 02:41:09;;;;;;;0.00;0.00;;;;;;;;;;4979495;28;20699;-66
2023/10/16 02:43:41;;;;;;;0.00;0.00;;;;;;;;;;4980321;28;20549;-66
2023/10/16 02:46:10;;;;;;;0.00;0.00;;;;;;;;;;4980969;28;20111;-66
2023/10/16 02:48:36;;;;;;;0.00;0.00;;;;;;;;;;4979322;28;20774;-66
2023/10/16 02:51:02;;;;;;;0.00;0.00;;;;;;;;;;4981073;28;20459;-66
2023/10/16 02:53:30;;;;;;;0.00;0.00;;;;;;;;;;4981187;28;20081;-66
2023/10/16 02:56:08;;;;;;;0.00;0.00;;;;;;;;;;4979620;28;20041;-66
2023/10/16 02:58:38;;;;;;;0.00;0.00;;;;;;;;;;4987633;28;20134;-66
2023/10/16 03:01:12;;;;;;;0.00;0.00;;;;;;;;;;4981732;28;20047;-66
2023/10/16 03:03:42;;;;;;;0.00;0.00;;;;;;;;;;4982340;28;20486;-66
2023/10/16 03:06:09;;;;;;;0.00;0.00;;;;;;;;;;4980234;28;20796;-66
2023/10/16 03:08:36;;;;;;;0.00;0.00;;;;;;;;;;4981008;28;20521;-66
2023/10/16 03:11:06;;;;;;;0.00;0.00;;;;;;;;;;4981060;28;20832;-66
2023/10/16 03:13:35;;;;;;;0.00;0.00;;;;;;;;;;4977792;28;20035;-66
2023/10/16 03:16:05;;;;;;;0.00;0.00;;;;;;;;;;4980799;28;20039;-66
2023/10/16 03:18:31;;;;;;;0.00;0.00;;;;;;;;;;4986744;28;20038;-66
2023/10/16 03:21:21;;;;;;;0.00;0.00;;;;;;;;;;4981553;28;20131;-66
2023/10/16 03:23:47;;;;;;;0.00;0.00;;;;;;;;;;4985192;28;20071;-66
2023/10/16 03:28:46;;;;;;;0.00;0.00;;;;;;;;;;4978764;28;20474;-66
2023/10/16 03:31:12;;;;;;;0.00;0.00;;;;;;;;;;4985466;28;20044;-66
2023/10/16 03:33:38;;;;;;;0.00;0.00;;;;;;;;;;4985489;28;20406;-66
2023/10/16 03:36:05;;;;;;;0.00;0.00;;;;;;;;;;4983993;28;20112;-66
2023/10/16 03:38:37;;;;;;;0.00;0.00;;;;;;;;;;4986247;28;20050;-66
2023/10/16 03:41:12;;;;;;;0.00;0.00;;;;;;;;;;4983571;28;20133;-66
2023/10/16 03:43:42;;;;;;;0.00;0.00;;;;;;;;;;4986293;28;20118;-66
2023/10/16 03:46:10;;;;;;;0.00;0.00;;;;;;;;;;4983240;28;20046;-66
2023/10/16 03:48:36;;;;;;;0.00;0.00;;;;;;;;;;4986903;28;20495;-66
2023/10/16 03:51:03;;;;;;;0.00;0.00;;;;;;;;;;4984788;28;20681;-66
2023/10/16 03:53:32;;;;;;;0.00;0.00;;;;;;;;;;4985746;28;20520;-67
2023/10/16 03:55:58;;;;;;;0.00;0.00;;;;;;;;;;4986826;28;20403;-66
2023/10/16 03:58:26;;;;;;;0.00;0.00;;;;;;;;;;4986045;28;20091;-66
2023/10/16 04:03:19;;;;;;;0.00;0.00;;;;;;;;;;4986522;28;20046;-66
2023/10/16 04:05:45;;;;;;;0.00;0.00;;;;;;;;;;4984731;28;20502;-66
2023/10/16 04:08:14;;;;;;;0.00;0.00;;;;;;;;;;4992922;28;20030;-66
2023/10/16 04:10:47;;;;;;;0.00;0.00;;;;;;;;;;4986340;28;20038;-66
2023/10/16 04:13:14;;;;;;;0.00;0.00;;;;;;;;;;4981604;28;20179;-67
2023/10/16 04:18:19;;;;;;;0.00;0.00;;;;;;;;;;4988183;28;20108;-66
2023/10/16 04:20:47;;;;;;;0.00;0.00;;;;;;;;;;4987446;28;20364;-66
2023/10/16 04:31:45;;;;;;;0.00;0.00;;;;;;;;;;4982342;28;20092;-66
2023/10/16 04:34:25;;;;;;;0.00;0.00;;;;;;;;;;4987145;28;20520;-66
2023/10/16 04:37:29;;;;;;;0.00;0.00;;;;;;;;;;4989204;28;20038;-66
2023/10/16 04:50:37;;;;;;;0.00;0.00;;;;;;;;;;4984090;28;20050;-66
2023/10/16 04:53:11;;;;;;;0.00;0.00;;;;;;;;;;4985340;28;20069;-66
2023/10/16 05:14:19;;;;;;;0.00;0.00;;;;;;;;;;4975458;28;20038;-66
2023/10/16 06:14:09;;;;;;;0.00;0.00;;;;;;;;;;4986418;28;20055;-66
2023/10/16 06:14:58;;;;;;;0.00;0.00;;;;;;;;;;4977012;28;20598;-68
2023/10/16 06:17:24;;;;;;;0.00;0.00;;;;;;;;;;4977875;28;20103;-68
2023/10/16 06:19:51;;;;;;;0.00;0.00;;;;;;;;;;4980667;28;20418;-68
2023/10/16 06:22:17;;;;;;;0.00;0.00;;;;;;;;;;4981063;28;20034;-68
2023/10/16 06:24:47;;;;;;;0.00;0.00;;;;;;;;;;4983771;28;20561;-68
2023/10/16 06:27:19;;;;;;;0.00;0.00;;;;;;;;;;4978611;28;20034;-68
2023/10/16 06:29:51;;;;;;;0.00;0.00;;;;;;;;;;4980993;28;20092;-69
2023/10/16 06:32:21;;;;;;;0.00;0.00;;;;;;;;;;4976633;28;20100;-69
2023/10/16 06:34:47;;;;;;;0.00;0.00;;;;;;;;;;4978884;28;20041;-69
2023/10/16 06:37:21;;;;;;;0.00;0.00;;;;;;;;;;4976086;28;20104;-69
2023/10/16 06:39:58;;;;;;;0.00;0.00;;;;;;;;;;4978060;28;20054;-69
2023/10/16 06:42:25;;;;;;;0.00;0.00;;;;;;;;;;4977949;28;20433;-69
2023/10/16 06:44:54;;;;;;;0.00;0.00;;;;;;;;;;4977713;28;20050;-69
2023/10/16 06:47:34;;;;;;;0.00;0.00;;;;;;;;;;4972657;28;20088;-66
2023/10/16 06:50:00;;;;;;;0.00;0.00;;;;;;;;;;4974240;28;20039;-66
2023/10/16 06:52:26;;;;;;;0.00;0.00;;;;;;;;;;4980056;28;20088;-66
2023/10/16 06:54:52;;;;;;;0.00;0.00;;;;;;;;;;4979631;28;20405;-67
2023/10/16 06:57:19;;;;;;;0.00;0.00;;;;;;;;;;4991592;28;20034;-66
2023/10/16 06:59:45;;;;;;;0.00;0.00;;;;;;;;;;4977082;28;20038;-66
2023/10/16 07:02:20;;;;;;;0.00;0.00;;;;;;;;;;4975322;28;20046;-66
2023/10/16 07:04:47;;;;;;;0.00;0.00;;;;;;;;;;4977646;28;20034;-66
2023/10/16 07:07:17;;;;;;;0.00;0.00;;;;;;;;;;4975819;28;20497;-66
2023/10/16 07:09:47;;;;;;;0.00;0.00;;;;;;;;;;4984746;28;20233;-66
2023/10/16 07:12:16;;;;;;;0.00;0.00;;;;;;;;;;4978787;28;20108;-66
2023/10/16 07:14:42;;;;;;;0.00;0.00;;;;;;;;;;4975929;28;20418;-65
2023/10/16 07:17:12;;;;;;;0.00;0.00;;;;;;;;;;4976639;28;20042;-67
2023/10/16 07:19:41;;;;;;;0.00;0.00;;;;;;;;;;4977034;28;20053;-66
2023/10/16 07:22:10;;;;;;;0.00;0.00;;;;;;;;;;4974487;28;20374;-66
2023/10/16 07:24:36;;;;;;;0.00;0.00;;;;;;;;;;4978353;28;20041;-66
2023/10/16 07:27:12;;;;;;;0.00;0.00;;;;;;;;;;4976250;28;20046;-65
2023/10/16 07:29:41;;;;;;;0.00;0.00;;;;;;;;;;4983475;28;20038;-65
2023/10/16 07:32:08;;;;;;;0.00;0.00;;;;;;;;;;4995859;28;20049;-66
2023/10/16 07:34:34;;;;;;;0.00;0.00;;;;;;;;;;4980333;28;20031;-66
2023/10/16 07:37:00;;;;;;;0.00;0.00;;;;;;;;;;4979358;28;20047;-68
2023/10/16 07:39:28;;;;;;;0.00;0.00;;;;;;;;;;4981235;28;20120;-69
2023/10/16 07:41:55;;;;;;;0.00;0.00;;;;;;;;;;4979448;28;20081;-66
2023/10/16 07:44:21;;;;;;;0.00;0.00;;;;;;;;;;4977544;28;20181;-65
2023/10/16 07:46:50;;;;;;;0.00;0.00;;;;;;;;;;4977001;28;21117;-65
2023/10/16 07:49:17;;;;;;;0.00;0.00;;;;;;;;;;4974686;28;20647;-65
2023/10/16 07:51:46;;;;;;;0.00;0.00;;;;;;;;;;4973488;28;20463;-66
2023/10/16 07:54:12;;;;;;;0.00;0.00;;;;;;;;;;4985930;28;20147;-65
2023/10/16 07:56:38;;;;;;;0.00;0.00;;;;;;;;;;4979665;28;20105;-65
2023/10/16 07:59:08;;;;;;;0.00;0.00;;;;;;;;;;4975656;28;20135;-66
2023/10/16 08:04:19;;;;;;;0.00;0.00;;;;;;;;;;4976357;28;20093;-67
2023/10/16 08:06:45;;;;;;;0.00;0.00;;;;;;;;;;4977512;28;20061;-66
2023/10/16 08:12:12;;;;;;;0.00;0.00;;;;;;;;;;4978206;28;20030;-67
2023/10/16 08:14:41;;;;;;;0.00;0.00;;;;;;;;;;4975063;28;20149;-66
2023/10/16 08:17:17;;;;;;;0.00;0.00;;;;;;;;;;4979079;28;20395;-68
2023/10/16 08:19:43;;;;;;;0.00;0.00;;;;;;;;;;4978652;28;20042;-66
2023/10/16 08:22:13;;;;;;;0.00;0.00;;;;;;;;;;4979905;28;20483;-66
2023/10/16 08:24:43;;;;;;;0.00;0.00;;;;;;;;;;4984959;28;20051;-66
2023/10/16 08:27:39;;;;;;;0.00;0.00;;;;;;;;;;4986429;28;20418;-66
2023/10/16 08:30:17;;;;;;;0.00;0.00;;;;;;;;;;4973991;28;20410;-66
2023/10/16 08:35:19;;;;;;;0.00;0.00;;;;;;;;;;4978379;28;20483;-67
2023/10/16 08:37:56;;;;;;;0.00;0.00;;;;;;;;;;4978339;28;20128;-66
2023/10/16 08:40:24;;;;;;;0.00;0.00;;;;;;;;;;4977375;28;20038;-67
2023/10/16 08:43:00;;;;;;;0.00;0.00;;;;;;;;;;4979356;28;20065;-67
2023/10/16 08:45:27;;;;;;;0.00;0.00;;;;;;;;;;4979785;28;20030;-67
2023/10/16 08:47:54;;;;;;;0.00;0.00;;;;;;;;;;4979749;28;20619;-68
2023/10/16 08:50:32;;;;;;;0.00;0.00;;;;;;;;;;4977244;28;20118;-66
2023/10/16 08:52:58;;;;;;;0.00;0.00;;;;;;;;;;4994358;28;20092;-68
2023/10/16 08:55:27;;;;;;;0.00;0.00;;;;;;;;;;4978346;28;20065;-64
2023/10/16 08:57:54;;;;;;;0.00;0.00;;;;;;;;;;4976581;28;20438;-68
2023/10/16 09:00:24;;;;;;;0.00;0.00;;;;;;;;;;4975545;28;20032;-67
2023/10/16 09:02:53;;;;;;;0.00;0.00;;;;;;;;;;4978858;28;20038;-67
2023/10/16 09:05:20;;;;;;;0.00;0.00;;;;;;;;;;4980586;28;20351;-67
2023/10/16 09:07:48;;;;;;;0.00;0.00;;;;;;;;;;4978992;28;20035;-68
2023/10/16 09:10:15;;;;;;;0.00;0.00;;;;;;;;;;4978715;28;20034;-67
2023/10/16 09:13:07;;;;;;;0.00;0.00;;;;;;;;;;4980123;28;20039;-66
2023/10/16 09:15:33;;;;;;;0.00;0.00;;;;;;;;;;4986964;28;20133;-69
2023/10/16 09:17:59;;;;;;;0.00;0.00;;;;;;;;;;4977707;28;20368;-68
2023/10/16 09:20:33;;;;;;;0.00;0.00;;;;;;;;;;4975349;28;20088;-67
2023/10/16 09:23:02;;;;;;;0.00;0.00;;;;;;;;;;4992049;28;20037;-73
2023/10/16 09:25:31;;;;;;;0.00;0.00;;;;;;;;;;4985391;28;20049;-73
2023/10/16 09:27:57;;;;;;;0.00;0.00;;;;;;;;;;4975709;28;20655;-72
2023/10/16 09:30:23;;;;;;;0.00;0.00;;;;;;;;;;4949419;28;20031;-74
2023/10/16 09:32:51;;;;;;;0.00;0.00;;;;;;;;;;4986774;28;20034;-74
2023/10/16 09:35:30;;;;;;;0.00;0.00;;;;;;;;;;4984676;28;20418;-74
2023/10/16 09:38:17;;;;;;;0.00;0.00;;;;;;;;;;4976952;28;20489;-75
2023/10/16 09:40:45;;;;;;;0.00;0.00;;;;;;;;;;4989520;28;20038;-74
2023/10/16 09:43:33;;;;;;;0.00;0.00;;;;;;;;;;4975181;28;20045;-74
2023/10/16 09:46:48;;;;;;;0.00;0.00;;;;;;;;;;4977972;28;20038;-74
2023/10/16 09:49:05;;;;;;;0.00;0.00;;;;;;;;;;4988970;28;20038;-74
2023/10/16 09:51:35;;;;;;;0.00;0.00;;;;;;;;;;4982607;28;20565;-71
2023/10/16 09:54:02;;;;;;;0.00;0.00;;;;;;;;;;4989302;28;20042;-71
2023/10/16 09:56:29;;;;;;;0.00;0.00;;;;;;;;;;4978137;28;20514;-71
2023/10/16 09:58:56;;;;;;;0.00;0.00;;;;;;;;;;4977287;28;20046;-71
2023/10/16 10:01:29;;;;;;;0.00;0.00;;;;;;;;;;4977292;28;20132;-71
2023/10/16 10:03:56;;;;;;;0.00;0.00;;;;;;;;;;4978785;28;20038;-72
2023/10/16 10:06:24;;;;;;;0.00;0.00;;;;;;;;;;4979835;28;20038;-71
2023/10/16 10:11:59;;;;;;;0.00;0.00;;;;;;;;;;4978509;28;20507;-70
2023/10/16 10:16:56;;;;;;;0.00;0.00;;;;;;;;;;4980078;28;20689;-71
2023/10/16 10:19:31;;;;;;;0.00;0.00;;;;;;;;;;4976711;28;20498;-71
2023/10/16 10:21:57;;;;;;;0.00;0.00;;;;;;;;;;4979023;28;20126;-70
2023/10/16 10:24:24;;;;;;;0.00;0.00;;;;;;;;;;4975965;28;20046;-71
2023/10/16 10:26:55;;;;;;;0.00;0.00;;;;;;;;;;4975757;28;20456;-71
2023/10/16 10:29:22;;;;;;;0.00;0.00;;;;;;;;;;4975273;28;20379;-70
2023/10/16 10:31:50;;;;;;;0.00;0.00;;;;;;;;;;4976037;28;20625;-72
2023/10/16 10:34:23;;;;;;;0.00;0.00;;;;;;;;;;4976029;28;20089;-73
2023/10/16 10:36:49;;;;;;;0.00;0.00;;;;;;;;;;4978789;28;20034;-71
2023/10/16 10:39:36;;;;;;;0.00;0.00;;;;;;;;;;4977524;28;20125;-71
2023/10/16 10:42:05;;;;;;;0.00;0.00;;;;;;;;;;4976559;28;20027;-71
2023/10/16 10:44:32;;;;;;;0.00;0.00;;;;;;;;;;4984149;28;20360;-72
2023/10/16 10:47:05;;;;;;;0.00;0.00;;;;;;;;;;4976655;28;20049;-72
2023/10/16 10:49:35;;;;;;;0.00;0.00;;;;;;;;;;4980497;28;20106;-72
2023/10/16 10:52:01;;;;;;;0.00;0.00;;;;;;;;;;4978218;28;20058;-71
2023/10/16 10:54:28;;;;;;;0.00;0.00;;;;;;;;;;4973542;28;20413;-71
2023/10/16 10:56:59;;;;;;;0.00;0.00;;;;;;;;;;4976173;28;20039;-71
2023/10/16 10:59:40;;;;;;;0.00;0.00;;;;;;;;;;4973308;28;20732;-71
2023/10/16 11:04:42;;;;;;;0.00;0.00;;;;;;;;;;4978264;28;20104;-71
2023/10/16 11:07:25;;;;;;;0.00;0.00;;;;;;;;;;4975133;28;20121;-71
2023/10/16 11:09:52;;;;;;;0.00;0.00;;;;;;;;;;4981865;28;20121;-71
2023/10/16 11:12:24;;;;;;;0.00;0.00;;;;;;;;;;4974329;28;20485;-71
2023/10/16 11:14:51;;;;;;;0.00;0.00;;;;;;;;;;4980556;28;20398;-71
2023/10/16 11:17:37;;;;;;;0.00;0.00;;;;;;;;;;4978526;28;20034;-71
2023/10/16 11:22:45;;;;;;;0.00;0.00;;;;;;;;;;4976550;28;20035;-71
2023/10/16 11:25:13;;;;;;;0.00;0.00;;;;;;;;;;4979242;28;20600;-71
2023/10/16 11:27:53;;;;;;;0.00;0.00;;;;;;;;;;4982446;28;20656;-70
2023/10/16 11:30:19;;;;;;;0.00;0.00;;;;;;;;;;4974328;28;20051;-70
2023/10/16 11:32:49;;;;;;;0.00;0.00;;;;;;;;;;4980071;28;20403;-70
2023/10/16 11:35:19;;;;;;;0.00;0.00;;;;;;;;;;4977223;28;20090;-70
2023/10/16 11:37:50;;;;;;;0.00;0.00;;;;;;;;;;4980165;28;20550;-70
2023/10/16 11:40:19;;;;;;;0.00;0.00;;;;;;;;;;4974747;28;20058;-69
2023/10/16 11:42:46;;;;;;;0.00;0.00;;;;;;;;;;4978412;28;20043;-69
2023/10/16 11:45:18;;;;;;;0.00;0.00;;;;;;;;;;4979598;28;20092;-69
2023/10/16 11:47:54;;;;;;;0.00;0.00;;;;;;;;;;4982973;28;20152;-69
2023/10/16 11:50:38;;;;;;;0.00;0.00;;;;;;;;;;4975461;28;20046;-69
2023/10/16 11:53:07;;;;;;;0.00;0.00;;;;;;;;;;4983176;28;20053;-69
2023/10/16 11:55:36;;;;;;;0.00;0.00;;;;;;;;;;4981232;28;20581;-69
2023/10/16 11:58:02;;;;;;;0.00;0.00;;;;;;;;;;4977286;28;20037;-69
2023/10/16 12:00:31;;;;;;;0.00;0.00;;;;;;;;;;4979405;28;20544;-69
2023/10/16 12:02:57;;;;;;;0.00;0.00;;;;;;;;;;4979494;28;20027;-69
2023/10/16 12:05:28;;;;;;;0.00;0.00;;;;;;;;;;4978605;28;20038;-69
2023/10/16 12:07:56;;;;;;;0.00;0.00;;;;;;;;;;4982569;28;20489;-69
2023/10/16 12:10:23;;;;;;;0.00;0.00;;;;;;;;;;4979966;28;20482;-69
2023/10/16 12:12:49;;;;;;;0.00;0.00;;;;;;;;;;4980146;28;20476;-69
2023/10/16 12:15:15;;;;;;;0.00;0.00;;;;;;;;;;4980518;28;20506;-69
2023/10/16 12:17:43;;;;;;;0.00;0.00;;;;;;;;;;4966366;28;20377;-69
2023/10/16 12:20:10;;;;;;;0.00;0.00;;;;;;;;;;4978197;28;20042;-69
2023/10/16 12:22:39;;;;;;;0.00;0.00;;;;;;;;;;4976714;28;20100;-69
2023/10/16 12:25:09;;;;;;;0.00;0.00;;;;;;;;;;4981181;28;20042;-70
2023/10/16 12:27:39;;;;;;;0.00;0.00;;;;;;;;;;4979633;28;20126;-69
2023/10/16 12:30:05;;;;;;;0.00;0.00;;;;;;;;;;4976931;28;20570;-69
2023/10/16 12:32:32;;;;;;;0.00;0.00;;;;;;;;;;4982716;28;20045;-69
2023/10/16 12:35:00;;;;;;;0.00;0.00;;;;;;;;;;4985032;28;20046;-69
2023/10/16 12:37:27;;;;;;;0.00;0.00;;;;;;;;;;4982397;28;20092;-68
2023/10/16 12:39:55;;;;;;;0.00;0.00;;;;;;;;;;4981137;28;20046;-67
2023/10/16 12:42:21;;;;;;;0.00;0.00;;;;;;;;;;4981597;28;20116;-67
2023/10/16 12:44:47;;;;;;;0.00;0.00;;;;;;;;;;4981709;28;20053;-68
2023/10/16 12:47:13;;;;;;;0.00;0.00;;;;;;;;;;4980207;28;20045;-68
2023/10/16 12:49:39;;;;;;;0.00;0.00;;;;;;;;;;4979900;28;20853;-67
2023/10/16 12:52:05;;;;;;;0.00;0.00;;;;;;;;;;4973855;28;20043;-68
2023/10/16 12:54:31;;;;;;;0.00;0.00;;;;;;;;;;4980171;28;20034;-68
2023/10/16 12:56:58;;;;;;;0.00;0.00;;;;;;;;;;4981969;28;20121;-68
2023/10/16 12:59:27;;;;;;;0.00;0.00;;;;;;;;;;4980653;28;20082;-67
2023/10/16 13:01:53;;;;;;;0.00;0.00;;;;;;;;;;4982217;28;20442;-68
2023/10/16 13:04:19;;;;;;;0.00;0.00;;;;;;;;;;4982157;28;20101;-67
2023/10/16 13:06:46;;;;;;;0.00;0.00;;;;;;;;;;4983083;28;20046;-68
2023/10/16 13:09:16;;;;;;;0.00;0.00;;;;;;;;;;4978224;28;20104;-68
2023/10/16 13:11:42;;;;;;;0.00;0.00;;;;;;;;;;4981016;28;20461;-68
2023/10/16 13:14:08;;;;;;;0.00;0.00;;;;;;;;;;4981542;28;20154;-68
2023/10/16 13:16:34;;;;;;;0.00;0.00;;;;;;;;;;4973633;28;20045;-68
2023/10/16 13:19:00;;;;;;;0.00;0.00;;;;;;;;;;4980602;28;20054;-67
2023/10/16 13:21:33;;;;;;;0.00;0.00;;;;;;;;;;4980490;28;20066;-67
2023/10/16 13:24:19;;;;;;;0.00;0.00;;;;;;;;;;4981791;28;20034;-67
2023/10/16 13:26:47;;;;;;;0.00;0.00;;;;;;;;;;4985906;28;20038;-68
2023/10/16 13:29:17;;;;;;;0.00;0.00;;;;;;;;;;4980203;28;20201;-68
2023/10/16 13:31:47;;;;;;;0.00;0.00;;;;;;;;;;4978105;28;20069;-68
2023/10/16 13:34:15;;;;;;;0.00;0.00;;;;;;;;;;4978734;28;20486;-68
2023/10/16 13:36:43;;;;;;;0.00;0.00;;;;;;;;;;4976648;28;20096;-68
2023/10/16 13:39:09;;;;;;;0.00;0.00;;;;;;;;;;4976989;28;20045;-68
2023/10/16 13:41:50;;;;;;;0.00;0.00;;;;;;;;;;4976052;28;20141;-68
2023/10/16 13:44:16;;;;;;;0.00;0.00;;;;;;;;;;4980536;28;20557;-68
2023/10/16 13:46:42;;;;;;;0.00;0.00;;;;;;;;;;4978593;28;20505;-70
2023/10/16 13:49:14;;;;;;;0.00;0.00;;;;;;;;;;4975880;28;20031;-71
2023/10/16 13:51:40;;;;;;;0.00;0.00;;;;;;;;;;4979107;28;20050;-70
2023/10/16 13:54:11;;;;;;;0.00;0.00;;;;;;;;;;4979818;28;20469;-70
2023/10/16 13:56:38;;;;;;;0.00;0.00;;;;;;;;;;4977875;28;20038;-70
2023/10/16 13:59:05;;;;;;;0.00;0.00;;;;;;;;;;4975467;28;20062;-70
2023/10/16 14:01:32;;;;;;;0.00;0.00;;;;;;;;;;4976061;28;20123;-70
2023/10/16 14:03:58;;;;;;;0.00;0.00;;;;;;;;;;4978253;28;20026;-70
2023/10/16 14:06:27;;;;;;;0.00;0.00;;;;;;;;;;4979091;28;20227;-70
2023/10/16 14:08:55;;;;;;;0.00;0.00;;;;;;;;;;4981176;28;20434;-70
2023/10/16 14:11:28;;;;;;;0.00;0.00;;;;;;;;;;4978547;28;20122;-70
2023/10/16 14:13:54;;;;;;;0.00;0.00;;;;;;;;;;4981017;28;20061;-70
2023/10/16 14:16:20;;;;;;;0.00;0.00;;;;;;;;;;4975844;28;20559;-70
2023/10/16 14:18:46;;;;;;;0.00;0.00;;;;;;;;;;4975562;28;20126;-70
2023/10/16 14:21:13;;;;;;;0.00;0.00;;;;;;;;;;4978927;28;20037;-70
2023/10/16 14:23:40;;;;;;;0.00;0.00;;;;;;;;;;4974547;28;20061;-70
2023/10/16 14:26:28;;;;;;;0.00;0.00;;;;;;;;;;4980527;28;20035;-70
2023/10/16 14:28:59;;;;;;;0.00;0.00;;;;;;;;;;4979806;28;20049;-70
2023/10/16 14:31:26;;;;;;;0.00;0.00;;;;;;;;;;4976883;28;20509;-70
2023/10/16 14:33:53;;;;;;;0.00;0.00;;;;;;;;;;4975907;28;20125;-70
2023/10/16 14:36:19;;;;;;;0.00;0.00;;;;;;;;;;4972778;28;20038;-70
2023/10/16 14:38:45;;;;;;;0.00;0.00;;;;;;;;;;4979120;28;20251;-70
2023/10/16 14:41:15;;;;;;;0.00;0.00;;;;;;;;;;4973540;28;20031;-70
2023/10/16 14:43:45;;;;;;;0.00;0.00;;;;;;;;;;4976355;28;20038;-70
2023/10/16 14:46:11;;;;;;;0.00;0.00;;;;;;;;;;4977394;28;20084;-70
2023/10/16 14:48:44;;;;;;;0.00;0.00;;;;;;;;;;4977764;28;20065;-70
2023/10/16 14:51:15;;;;;;;0.00;0.00;;;;;;;;;;4976934;28;20140;-70
2023/10/16 14:53:45;;;;;;;0.00;0.00;;;;;;;;;;4979449;28;20411;-70
2023/10/16 14:56:17;;;;;;;0.00;0.00;;;;;;;;;;4977282;28;20567;-68
2023/10/16 14:58:44;;;;;;;0.00;0.00;;;;;;;;;;4980525;28;20038;-68
2023/10/16 15:01:16;;;;;;;0.00;0.00;;;;;;;;;;4976442;28;20096;-69
2023/10/16 15:03:46;;;;;;;0.00;0.00;;;;;;;;;;4976293;28;20027;-69
2023/10/16 15:06:13;;;;;;;0.00;0.00;;;;;;;;;;4974963;28;20162;-68
2023/10/16 15:08:43;;;;;;;0.00;0.00;;;;;;;;;;4978189;28;20444;-69
2023/10/16 15:11:10;;;;;;;0.00;0.00;;;;;;;;;;4973303;28;20407;-68
2023/10/16 15:13:37;;;;;;;0.00;0.00;;;;;;;;;;4982583;28;20041;-68
2023/10/16 15:16:06;;;;;;;0.00;0.00;;;;;;;;;;4981077;28;20505;-68
2023/10/16 15:18:33;;;;;;;0.00;0.00;;;;;;;;;;4982296;28;20624;-68
2023/10/16 15:21:00;;;;;;;0.00;0.00;;;;;;;;;;4979135;28;20037;-68
2023/10/16 15:23:26;;;;;;;0.00;0.00;;;;;;;;;;4982057;28;20071;-68
2023/10/16 15:25:52;;;;;;;0.00;0.00;;;;;;;;;;4980770;28;20466;-68
2023/10/16 15:28:18;;;;;;;0.00;0.00;;;;;;;;;;4989830;28;20040;-68
2023/10/16 15:30:44;;;;;;;0.00;0.00;;;;;;;;;;4990971;28;20039;-68
2023/10/16 15:33:10;;;;;;;0.00;0.00;;;;;;;;;;4982782;28;20038;-68
2023/10/16 15:35:40;;;;;;;0.00;0.00;;;;;;;;;;4987431;28;20596;-67
2023/10/16 15:38:08;;;;;;;0.00;0.00;;;;;;;;;;4990500;28;20030;-69
2023/10/16 15:40:34;;;;;;;0.00;0.00;;;;;;;;;;4989082;28;20050;-68
2023/10/16 15:43:00;;;;;;;0.00;0.00;;;;;;;;;;4985206;28;20037;-68
2023/10/16 15:45:33;;;;;;;0.00;0.00;;;;;;;;;;4984974;28;20959;-68
2023/10/16 15:47:59;;;;;;;0.00;0.00;;;;;;;;;;4983149;28;20120;-67
2023/10/16 15:50:28;;;;;;;0.00;0.00;;;;;;;;;;4982272;28;20517;-68
2023/10/16 15:52:58;;;;;;;0.00;0.00;;;;;;;;;;4981475;28;20034;-69
2023/10/16 15:55:25;;;;;;;0.00;0.00;;;;;;;;;;4983501;28;20065;-68
2023/10/16 15:57:52;;;;;;;0.00;0.00;;;;;;;;;;4979601;28;20038;-68
2023/10/16 16:00:18;;;;;;;0.00;0.00;;;;;;;;;;4984787;28;20038;-68
2023/10/16 16:02:44;;;;;;;0.00;0.00;;;;;;;;;;4991130;28;20128;-68
2023/10/16 16:05:11;;;;;;;0.00;0.00;;;;;;;;;;4986576;28;20688;-68
2023/10/16 16:07:37;;;;;;;0.00;0.00;;;;;;;;;;4982055;28;20395;-68
2023/10/16 16:10:06;;;;;;;0.00;0.00;;;;;;;;;;4980061;28;20687;-68
2023/10/16 16:12:32;;;;;;;0.00;0.00;;;;;;;;;;4980343;28;20042;-68
2023/10/16 16:14:58;;;;;;;0.00;0.00;;;;;;;;;;4978897;28;20132;-68
2023/10/16 16:17:25;;;;;;;0.00;0.00;;;;;;;;;;4979254;28;20050;-68
2023/10/16 16:19:52;;;;;;;0.00;0.00;;;;;;;;;;4979823;28;20097;-68
2023/10/16 16:22:17;;;;;;;0.00;0.00;;;;;;;;;;4979623;28;20092;-68
2023/10/16 16:24:44;;;;;;;0.00;0.00;;;;;;;;;;4980824;28;20050;-67
2023/10/16 16:27:10;;;;;;;0.00;0.00;;;;;;;;;;4977543;28;20129;-68
2023/10/16 16:29:36;;;;;;;0.00;0.00;;;;;;;;;;4979448;28;20788;-68
2023/10/16 16:32:03;;;;;;;0.00;0.00;;;;;;;;;;4980674;28;20062;-68
2023/10/16 16:34:29;;;;;;;0.00;0.00;;;;;;;;;;5001555;28;20041;-68
2023/10/16 16:36:57;;;;;;;0.00;0.00;;;;;;;;;;4982044;28;20142;-68
2023/10/16 16:39:23;;;;;;;0.00;0.00;;;;;;;;;;4980601;28;20046;-68
2023/10/16 16:41:50;;;;;;;0.00;0.00;;;;;;;;;;4985201;28;20114;-68
2023/10/16 16:44:17;;;;;;;0.00;0.00;;;;;;;;;;4986222;28;20042;-68
2023/10/16 16:46:44;;;;;;;0.00;0.00;;;;;;;;;;4977645;28;20739;-68
2023/10/16 16:49:13;;;;;;;0.00;0.00;;;;;;;;;;4988970;28;20183;-68
2023/10/16 16:51:39;;;;;;;0.00;0.00;;;;;;;;;;4979027;28;20835;-68
2023/10/16 16:54:07;;;;;;;0.00;0.00;;;;;;;;;;4990123;28;20026;-68
2023/10/16 16:56:35;;;;;;;0.00;0.00;;;;;;;;;;5000780;28;20039;-68